Terminal Aerodrome Forecast
Issued by NWS Jackson, KY

Home | Current Version | Previous Version | Text Only | Print | Product List | Glossary On
Versions: 1 2 3 4 5 6 7 8 9 10 11 12 13
450
FTUS43 KJKL 091720
TAFJKL
TAF
KJKL 091720Z 0918/1018 28004KT P6SM BKN025
     FM092100 28005KT P6SM SCT025
     FM092300 VRB03KT P6SM SCT250=

USA.gov is the U.S. government's official web portal to all federal, state and local government web resources and services.